createdAt,value
2019-02-27T05:42:48.901Z,99.90
2019-02-27T05:45:18.128Z,99.90
2019-02-27T05:47:47.403Z,99.90
2019-02-27T05:50:16.514Z,99.90
2019-02-27T05:52:48.551Z,99.90
2019-02-27T05:55:16.545Z,99.90
2019-02-27T05:57:45.701Z,99.90
2019-02-27T06:00:17.116Z,99.90
2019-02-27T06:02:46.285Z,99.90
2019-02-27T06:05:15.435Z,99.90
2019-02-27T06:07:44.587Z,99.90
2019-02-27T06:10:17.462Z,99.90
2019-02-27T06:12:45.507Z,99.90
2019-02-27T06:15:16.268Z,99.90
2019-02-27T06:17:48.773Z,99.90
2019-02-27T06:20:16.345Z,99.90
2019-02-27T06:22:45.490Z,99.90
2019-02-27T06:25:21.587Z,99.90
2019-02-27T06:27:47.484Z,99.90
2019-02-27T06:30:18.034Z,99.90
2019-02-27T06:32:47.204Z,99.90
2019-02-27T06:35:16.779Z,99.90
2019-02-27T06:37:50.411Z,99.90
2019-02-27T06:40:18.264Z,99.90
2019-02-27T06:42:47.674Z,99.90
2019-02-27T06:45:17.101Z,99.90
2019-02-27T06:47:46.374Z,99.90
2019-02-27T06:50:16.000Z,99.90
2019-02-27T06:52:45.168Z,99.90
2019-02-27T06:55:14.918Z,99.90
2019-02-27T06:57:44.094Z,99.90
2019-02-27T07:00:16.619Z,99.90
2019-02-27T07:02:45.862Z,99.90
2019-02-27T07:05:15.760Z,99.90
2019-02-27T07:07:44.934Z,99.90
2019-02-27T07:10:19.437Z,99.90
2019-02-27T07:12:46.353Z,99.90
2019-02-27T07:15:17.561Z,99.90
2019-02-27T07:17:46.683Z,99.90
2019-02-27T07:20:17.194Z,99.90
2019-02-27T07:22:46.819Z,99.90
2019-02-27T07:25:16.744Z,99.90
2019-02-27T07:27:45.876Z,99.90
2019-02-27T07:30:16.712Z,99.90
2019-02-27T07:32:45.967Z,99.90
2019-02-27T07:35:15.280Z,99.90
2019-02-27T07:37:47.024Z,99.90
2019-02-27T07:40:15.778Z,99.90
2019-02-27T07:42:44.937Z,99.90
2019-02-27T07:45:16.284Z,99.90
2019-02-27T07:47:45.450Z,99.90
2019-02-27T07:50:15.756Z,99.90
2019-02-27T07:52:44.905Z,99.90
2019-02-27T07:55:21.915Z,99.90
2019-02-27T07:57:46.909Z,99.90
2019-02-27T08:00:17.554Z,99.90
2019-02-27T08:02:46.691Z,99.90
2019-02-27T08:05:15.834Z,99.90
2019-02-27T08:07:48.646Z,99.90
2019-02-27T08:10:18.065Z,99.90
2019-02-27T08:12:47.288Z,99.90
2019-02-27T08:15:17.459Z,99.90
2019-02-27T08:17:46.669Z,99.90
2019-02-27T08:20:20.102Z,99.90
2019-02-27T08:22:48.273Z,99.90
2019-02-27T08:25:18.485Z,99.90
2019-02-27T08:27:47.663Z,99.90
2019-02-27T08:30:18.818Z,99.90
2019-02-27T08:32:48.320Z,99.90
2019-02-27T08:35:17.482Z,95.40
2019-02-27T08:37:46.625Z,84.30
2019-02-27T08:40:16.275Z,72.00
2019-02-27T08:42:45.516Z,67.60
2019-02-27T08:45:19.816Z,61.10
2019-02-27T08:47:45.782Z,57.00
2019-02-27T08:50:17.450Z,52.80
2019-02-27T08:52:50.544Z,50.10
2019-02-27T08:55:21.175Z,51.10
2019-02-27T08:57:49.869Z,50.90
2019-02-27T09:00:23.173Z,48.50
2019-02-27T09:02:52.317Z,47.40
2019-02-27T09:05:21.887Z,47.60
2019-02-27T09:07:51.344Z,46.60
2019-02-27T09:10:23.160Z,47.50
2019-02-27T09:12:51.986Z,43.70
2019-02-27T09:15:21.339Z,45.00
2019-02-27T09:17:50.559Z,44.30
2019-02-27T09:20:20.738Z,46.40
2019-02-27T09:22:50.300Z,43.00
2019-02-27T09:25:23.630Z,45.00
2019-02-27T09:27:50.467Z,44.40
2019-02-27T09:30:19.717Z,46.20
2019-02-27T09:32:49.301Z,44.40
2019-02-27T09:35:19.045Z,42.50
2019-02-27T09:37:50.668Z,41.50
2019-02-27T09:40:20.992Z,43.30
2019-02-27T09:42:52.733Z,43.30
2019-02-27T09:45:26.335Z,42.70
2019-02-27T09:47:59.558Z,40.70
2019-02-27T09:50:38.365Z,40.30
2019-02-27T09:53:07.589Z,40.20
2019-02-27T09:55:36.837Z,39.60
2019-02-27T09:58:11.156Z,38.90
2019-02-27T10:00:46.533Z,37.90
2019-02-27T10:03:20.164Z,37.10
2019-02-27T10:05:47.803Z,38.30
2019-02-27T10:08:17.456Z,36.70
2019-02-27T10:10:46.644Z,35.50
2019-02-27T10:13:15.944Z,36.00
2019-02-27T10:15:45.151Z,36.20
2019-02-27T10:18:18.119Z,33.80
2019-02-27T10:20:45.236Z,31.90
2019-02-27T10:23:14.410Z,32.30
2019-02-27T10:25:44.208Z,33.10
2019-02-27T10:28:13.424Z,36.10
2019-02-27T10:30:42.638Z,33.30
2019-02-27T10:33:11.930Z,30.70
2019-02-27T10:35:41.716Z,29.80
2019-02-27T10:38:10.877Z,30.50
2019-02-27T10:40:40.036Z,31.10
2019-02-27T10:43:09.278Z,30.40
2019-02-27T10:45:38.422Z,29.80
2019-02-27T10:48:07.675Z,31.60
2019-02-27T10:50:36.905Z,30.50
2019-02-27T10:53:06.191Z,32.70
2019-02-27T10:55:35.440Z,30.90
2019-02-27T10:58:04.662Z,30.90
2019-02-27T11:00:33.809Z,32.30
2019-02-27T11:03:03.002Z,31.30
2019-02-27T11:05:33.613Z,31.20
2019-02-27T11:08:02.779Z,33.10
2019-02-27T11:10:32.115Z,32.90
2019-02-27T11:13:05.503Z,33.20
2019-02-27T11:15:32.443Z,33.30
2019-02-27T11:18:05.416Z,34.40
2019-02-27T11:20:32.488Z,37.10
2019-02-27T11:23:06.421Z,33.80
2019-02-27T11:25:32.840Z,35.60
2019-02-27T11:28:02.208Z,35.60
2019-02-27T11:30:36.787Z,35.80
2019-02-27T11:33:04.472Z,37.20
2019-02-27T11:35:33.599Z,37.40
2019-02-27T11:38:02.778Z,40.00
2019-02-27T11:40:32.001Z,39.60
2019-02-27T11:43:06.338Z,39.50
2019-02-27T11:45:32.696Z,42.70
2019-02-27T11:48:02.280Z,40.80
2019-02-27T11:50:31.910Z,42.90
2019-02-27T11:53:02.744Z,40.30
2019-02-27T11:55:32.190Z,41.60
2019-02-27T11:58:04.601Z,42.40
2019-02-27T12:00:32.636Z,41.50
2019-02-27T12:03:02.105Z,43.10
2019-02-27T12:05:34.297Z,43.40
2019-02-27T12:08:02.828Z,41.60
2019-02-27T12:10:32.344Z,42.30
2019-02-27T12:13:02.728Z,43.70
2019-02-27T12:15:33.042Z,42.00
2019-02-27T12:18:05.461Z,43.90
2019-02-27T12:20:36.475Z,43.70
2019-02-27T12:23:07.544Z,43.80
2019-02-27T12:25:37.824Z,42.80
2019-02-27T12:28:07.682Z,43.50
2019-02-27T12:30:38.031Z,44.00
2019-02-27T12:33:07.751Z,44.70
2019-02-27T12:35:37.121Z,42.90
2019-02-27T12:38:08.155Z,42.20
2019-02-27T12:40:39.088Z,44.00
2019-02-27T12:43:08.243Z,45.30
2019-02-27T12:45:37.500Z,43.70
2019-02-27T12:48:06.644Z,45.20
2019-02-27T12:50:35.806Z,44.10
2019-02-27T12:53:05.949Z,43.70
2019-02-27T12:55:36.243Z,45.00
2019-02-27T12:58:05.848Z,44.50
2019-02-27T13:00:35.726Z,44.60
2019-02-27T13:03:08.341Z,44.90
2019-02-27T13:05:38.966Z,44.60
2019-02-27T13:08:08.373Z,46.60
2019-02-27T13:10:48.675Z,47.30
2019-02-27T13:13:18.448Z,48.20
2019-02-27T13:15:47.602Z,46.70
2019-02-27T13:18:16.752Z,47.90
2019-02-27T13:20:46.335Z,48.30
2019-02-27T13:23:15.793Z,48.20
2019-02-27T13:25:45.086Z,48.30
2019-02-27T13:28:15.580Z,48.70
2019-02-27T13:30:45.112Z,47.90
2019-02-27T13:33:15.443Z,48.70
2019-02-27T13:35:44.838Z,49.90
2019-02-27T13:38:17.717Z,49.40
2019-02-27T13:40:45.180Z,49.40
2019-02-27T13:43:14.788Z,50.50
2019-02-27T13:45:47.311Z,49.30
2019-02-27T13:48:15.070Z,49.70
2019-02-27T13:50:44.338Z,49.40
2019-02-27T13:53:13.544Z,50.40
2019-02-27T13:55:45.304Z,50.30
2019-02-27T13:58:13.966Z,51.10
2019-02-27T14:00:43.282Z,51.20
2019-02-27T14:03:13.415Z,49.20
2019-02-27T14:05:43.328Z,50.80
2019-02-27T14:08:12.486Z,50.90
2019-02-27T14:10:41.674Z,51.70
2019-02-27T14:13:10.858Z,51.60
2019-02-27T14:15:40.299Z,49.40
2019-02-27T14:18:09.479Z,49.60
2019-02-27T14:20:38.908Z,48.70
2019-02-27T14:23:08.088Z,49.80
2019-02-27T14:25:37.339Z,48.30
2019-02-27T14:28:06.499Z,49.00
2019-02-27T14:30:38.637Z,50.10
2019-02-27T14:33:07.795Z,49.10
2019-02-27T14:35:37.218Z,49.50
2019-02-27T14:38:06.436Z,49.60
2019-02-27T14:40:40.011Z,49.40
2019-02-27T14:43:07.589Z,49.90
2019-02-27T14:45:39.504Z,49.50
2019-02-27T14:48:07.632Z,49.30
2019-02-27T14:50:36.864Z,49.20
2019-02-27T14:53:06.031Z,48.90
2019-02-27T14:55:37.233Z,47.80
2019-02-27T14:58:06.159Z,48.20
2019-02-27T15:00:39.997Z,48.40
2019-02-27T15:03:07.527Z,47.70
2019-02-27T15:05:40.149Z,47.40
2019-02-27T15:08:07.731Z,49.40
2019-02-27T15:10:40.183Z,48.00
2019-02-27T15:13:07.933Z,49.50
2019-02-27T15:15:37.130Z,48.50
2019-02-27T15:18:06.385Z,47.90
2019-02-27T15:20:39.888Z,49.90
2019-02-27T15:23:06.505Z,48.40
2019-02-27T15:25:35.677Z,48.30
2019-02-27T15:28:04.901Z,49.70
2019-02-27T15:30:34.064Z,49.80
2019-02-27T15:33:05.002Z,48.00
2019-02-27T15:35:34.180Z,49.20
2019-02-27T15:38:03.308Z,49.20
2019-02-27T15:40:32.990Z,49.90
2019-02-27T15:43:10.685Z,47.20
2019-02-27T15:45:33.063Z,48.20
2019-02-27T15:48:06.623Z,51.40
2019-02-27T15:50:33.454Z,52.20
2019-02-27T15:53:04.397Z,53.30
2019-02-27T15:55:35.226Z,53.50
2019-02-27T15:58:05.048Z,54.00
2019-02-27T16:00:34.365Z,54.60
2019-02-27T16:03:03.579Z,55.60
2019-02-27T16:05:32.797Z,56.50
2019-02-27T16:08:02.029Z,56.60
2019-02-27T16:10:31.218Z,57.10
2019-02-27T16:13:01.330Z,57.60
2019-02-27T16:15:30.896Z,58.10
2019-02-27T16:18:04.415Z,58.50
2019-02-27T16:20:31.807Z,58.20
2019-02-27T16:23:04.267Z,58.30
2019-02-27T16:25:31.900Z,60.00
2019-02-27T16:28:01.053Z,61.40
2019-02-27T16:30:32.383Z,62.90
2019-02-27T16:33:01.228Z,64.90
2019-02-27T16:35:30.788Z,66.70
2019-02-27T16:37:59.947Z,68.80
2019-02-27T16:40:30.240Z,70.90
2019-02-27T16:42:59.486Z,72.40
2019-02-27T16:45:33.866Z,73.80
2019-02-27T16:48:00.757Z,75.60
2019-02-27T16:50:30.042Z,78.00
2019-02-27T16:52:59.217Z,80.20
2019-02-27T16:55:28.405Z,83.20
2019-02-27T16:57:58.052Z,85.80
2019-02-27T17:00:28.964Z,89.70
2019-02-27T17:02:58.275Z,93.90
2019-02-27T17:05:27.653Z,93.30
2019-02-27T17:08:00.225Z,94.50
2019-02-27T17:10:30.553Z,96.10
2019-02-27T17:13:00.251Z,97.50
2019-02-27T17:15:35.960Z,99.40
2019-02-27T17:18:02.871Z,99.90
2019-02-27T17:20:33.887Z,99.90
2019-02-27T17:23:07.625Z,99.90
2019-02-27T17:25:34.070Z,99.90
2019-02-27T17:28:03.371Z,99.90
2019-02-27T17:30:36.659Z,99.90
2019-02-27T17:33:05.311Z,99.90
2019-02-27T17:35:36.443Z,99.90
2019-02-27T17:38:05.679Z,99.90
2019-02-27T17:40:37.619Z,99.90
2019-02-27T17:43:10.532Z,99.90
2019-02-27T17:45:39.684Z,99.90
2019-02-27T17:48:09.398Z,99.90
2019-02-27T17:50:39.769Z,99.90
2019-02-27T17:53:08.991Z,99.90
2019-02-27T17:55:41.504Z,99.90
2019-02-27T17:58:08.995Z,99.90
2019-02-27T18:00:40.695Z,99.90
2019-02-27T18:03:09.827Z,99.90
2019-02-27T18:05:38.972Z,99.90
2019-02-27T18:08:08.310Z,99.90
2019-02-27T18:10:40.685Z,99.90
2019-02-27T18:13:09.937Z,99.90
2019-02-27T18:15:39.097Z,99.90
2019-02-27T18:18:10.639Z,99.90
2019-02-27T18:20:39.422Z,99.90
2019-02-27T18:23:08.569Z,99.90
2019-02-27T18:25:41.162Z,99.90
2019-02-27T18:28:09.629Z,99.90
2019-02-27T18:30:38.819Z,99.90
2019-02-27T18:33:13.609Z,99.90
2019-02-27T18:35:39.611Z,99.90
2019-02-27T18:38:08.731Z,99.90
2019-02-27T18:40:37.929Z,99.90
2019-02-27T18:43:07.117Z,99.90
2019-02-27T18:45:36.493Z,99.90
2019-02-27T18:48:07.292Z,99.90
2019-02-27T18:50:36.942Z,99.90
2019-02-27T18:53:07.501Z,99.90
2019-02-27T18:55:37.097Z,99.90
2019-02-27T18:58:06.644Z,99.90
2019-02-27T19:00:36.923Z,99.90
2019-02-27T19:03:06.866Z,99.90
2019-02-27T19:05:38.171Z,99.90
2019-02-27T19:08:07.394Z,99.90
2019-02-27T19:10:41.013Z,99.90
2019-02-27T19:13:07.709Z,99.90
2019-02-27T19:15:37.393Z,99.90
2019-02-27T19:18:07.418Z,99.90
2019-02-27T19:20:37.461Z,99.90
2019-02-27T19:23:06.628Z,99.90
2019-02-27T19:25:35.965Z,99.90
2019-02-27T19:28:06.226Z,99.90
2019-02-27T19:30:35.431Z,99.90
2019-02-27T19:33:05.351Z,99.90
2019-02-27T19:35:34.619Z,99.90
2019-02-27T19:38:04.274Z,99.90
2019-02-27T19:40:33.452Z,99.90
2019-02-27T19:43:03.864Z,99.90
2019-02-27T19:45:35.890Z,99.90
2019-02-27T19:48:04.494Z,99.90
2019-02-27T19:50:33.746Z,99.90
2019-02-27T19:53:06.592Z,99.90
2019-02-27T19:55:34.163Z,99.90
2019-02-27T19:58:03.374Z,99.90
2019-02-27T20:00:34.937Z,99.90
2019-02-27T20:03:04.251Z,99.90
2019-02-27T20:05:33.963Z,99.90
2019-02-27T20:08:03.296Z,99.90
2019-02-27T20:10:33.409Z,99.90
2019-02-27T20:13:03.050Z,99.90
2019-02-27T20:15:32.721Z,99.90
2019-02-27T20:18:01.872Z,99.90
2019-02-27T20:20:31.069Z,99.90
2019-02-27T20:23:00.239Z,99.90
2019-02-27T20:25:30.058Z,99.90
2019-02-27T20:27:59.883Z,99.90
2019-02-27T20:30:29.405Z,99.90
2019-02-27T20:32:59.758Z,99.90
2019-02-27T20:35:29.484Z,99.90
2019-02-27T20:37:58.745Z,99.90
2019-02-27T20:40:33.775Z,99.90
2019-02-27T20:42:59.202Z,99.90
2019-02-27T20:45:28.659Z,99.90
2019-02-27T20:48:01.698Z,99.90
2019-02-27T20:50:34.726Z,99.90
2019-02-27T20:53:04.234Z,99.90
2019-02-27T20:55:33.650Z,99.90
2019-02-27T20:58:02.854Z,99.90
2019-02-27T21:00:35.981Z,99.90
2019-02-27T21:03:03.054Z,99.90
2019-02-27T21:05:32.877Z,99.90
2019-02-27T21:08:02.589Z,99.90
2019-02-27T21:10:32.818Z,99.90
2019-02-27T21:13:02.313Z,99.90
2019-02-27T21:15:32.392Z,99.90
2019-02-27T21:18:04.351Z,99.90
2019-02-27T21:20:33.545Z,99.90
2019-02-27T21:23:03.412Z,99.90
2019-02-27T21:25:32.730Z,99.90
2019-02-27T21:28:06.602Z,99.90
2019-02-27T21:30:34.630Z,99.90
2019-02-27T21:33:03.778Z,99.90
2019-02-27T21:35:32.951Z,99.90
2019-02-27T21:38:02.121Z,99.90
2019-02-27T21:40:33.403Z,99.90
2019-02-27T21:43:02.358Z,99.90
2019-02-27T21:45:37.114Z,99.90
2019-02-27T21:48:03.634Z,99.90
2019-02-27T21:50:32.945Z,99.90
2019-02-27T21:53:02.119Z,99.90
2019-02-27T21:55:31.396Z,99.90
2019-02-27T21:58:00.947Z,99.90
2019-02-27T22:00:30.423Z,99.90
2019-02-27T22:03:04.050Z,99.90
2019-02-27T22:05:30.456Z,99.90
2019-02-27T22:07:59.620Z,99.90
2019-02-27T22:10:28.757Z,99.90
2019-02-27T22:12:57.899Z,99.90
2019-02-27T22:15:28.542Z,99.90
2019-02-27T22:17:57.767Z,99.90
2019-02-27T22:20:27.192Z,99.90
2019-02-27T22:22:56.343Z,99.90
2019-02-27T22:25:29.874Z,99.90
2019-02-27T22:27:58.351Z,99.90
